N565JC KSAT-KOKC
Flight info
| Callsign | N565JC |
|---|---|
| Flight time | 0h 57m |
| Altitude | 31000 |
| Route | YODUH2 KLNGR FUZ ZEMMA TSDEL3 |
| Aircraft | GLF5/M-SBDE1E2E3FGHIJ5M1RWXYZ/LV2D1 |
Departure
| Time | 2026-05-05 16:28 |
|---|---|
| Airport | San Antonio International Airport (KSAT) |
Arrival
| Time | 2026-05-05 17:26 |
|---|---|
| Airport | OKC Will Rogers World Airport (KOKC) |
| Time | Latitude | Longitude | Altitude | Speed | Heading |
|---|---|---|---|---|---|
| 2026-05-05 16:13 | 29.52201 | -98.46703 | 818 ft | 0 kts | 220° |
| 2026-05-05 16:20 | 29.52195 | -98.46712 | 818 ft | 1 kts | 251° |
| 2026-05-05 16:20 | 29.52206 | -98.46779 | 818 ft | 8 kts | 306° |
| 2026-05-05 16:21 | 29.52334 | -98.46935 | 818 ft | 14 kts | 312° |
| 2026-05-05 16:22 | 29.52573 | -98.46930 | 818 ft | 14 kts | 41° |
| 2026-05-05 16:22 | 29.52709 | -98.46798 | 818 ft | 11 kts | 34° |
| 2026-05-05 16:23 | 29.52834 | -98.46672 | 818 ft | 12 kts | 42° |
| 2026-05-05 16:23 | 29.52902 | -98.46605 | 818 ft | 13 kts | 40° |
| 2026-05-05 16:23 | 29.53048 | -98.46461 | 818 ft | 14 kts | 40° |
| 2026-05-05 16:24 | 29.53128 | -98.46385 | 818 ft | 15 kts | 41° |
| 2026-05-05 16:24 | 29.53208 | -98.46304 | 818 ft | 15 kts | 42° |
| 2026-05-05 16:24 | 29.53366 | -98.46151 | 818 ft | 14 kts | 39° |
| 2026-05-05 16:25 | 29.53446 | -98.46071 | 818 ft | 15 kts | 40° |
| 2026-05-05 16:25 | 29.53611 | -98.45904 | 818 ft | 16 kts | 40° |
| 2026-05-05 16:25 | 29.53702 | -98.45818 | 818 ft | 17 kts | 41° |
| 2026-05-05 16:26 | 29.53883 | -98.45635 | 818 ft | 18 kts | 41° |
| 2026-05-05 16:26 | 29.54075 | -98.45448 | 818 ft | 14 kts | 48° |
| 2026-05-05 16:27 | 29.54059 | -98.45364 | 818 ft | 9 kts | 131° |
| 2026-05-05 16:27 | 29.54024 | -98.45338 | 818 ft | 0 kts | 177° |
| 2026-05-05 16:27 | 29.54014 | -98.45337 | 818 ft | 3 kts | 178° |
| 2026-05-05 16:28 | 29.53971 | -98.45364 | 818 ft | 20 kts | 220° |
| 2026-05-05 16:28 | 29.53499 | -98.45834 | 860 ft | 149 kts | 219° |
| 2026-05-05 16:28 | 29.52659 | -98.46691 | 1561 ft | 173 kts | 221° |
| 2026-05-05 16:28 | 29.51779 | -98.47645 | 2275 ft | 185 kts | 221° |
| 2026-05-05 16:29 | 29.50858 | -98.48638 | 3053 ft | 182 kts | 222° |
| 2026-05-05 16:29 | 29.49861 | -98.49703 | 3855 ft | 229 kts | 222° |
| 2026-05-05 16:29 | 29.48622 | -98.51105 | 4953 ft | 265 kts | 233° |
| 2026-05-05 16:29 | 29.48026 | -98.53081 | 6085 ft | 275 kts | 267° |
| 2026-05-05 16:30 | 29.48524 | -98.55193 | 7227 ft | 284 kts | 301° |
| 2026-05-05 16:30 | 29.49928 | -98.56731 | 8391 ft | 292 kts | 326° |
| 2026-05-05 16:30 | 29.51867 | -98.57442 | 9763 ft | 301 kts | 358° |
| 2026-05-05 16:30 | 29.53919 | -98.56925 | 10733 ft | 322 kts | 23° |
| 2026-05-05 16:31 | 29.56120 | -98.55878 | 10821 ft | 365 kts | 20° |
| 2026-05-05 16:31 | 29.58514 | -98.54838 | 11959 ft | 370 kts | 21° |
| 2026-05-05 16:31 | 29.60897 | -98.53745 | 13302 ft | 371 kts | 21° |
| 2026-05-05 16:31 | 29.63343 | -98.52601 | 13965 ft | 391 kts | 22° |
| 2026-05-05 16:32 | 29.65845 | -98.51423 | 15124 ft | 393 kts | 21° |
| 2026-05-05 16:32 | 29.68374 | -98.50230 | 16029 ft | 404 kts | 21° |
| 2026-05-05 16:32 | 29.71017 | -98.48984 | 17017 ft | 412 kts | 21° |
| 2026-05-05 16:32 | 29.73658 | -98.47736 | 18061 ft | 418 kts | 20° |
| 2026-05-05 16:33 | 29.76359 | -98.46461 | 19044 ft | 427 kts | 20° |
| 2026-05-05 16:33 | 29.79161 | -98.45136 | 20129 ft | 434 kts | 19° |
| 2026-05-05 16:33 | 29.81949 | -98.43817 | 21193 ft | 442 kts | 19° |
| 2026-05-05 16:33 | 29.84851 | -98.42552 | 22246 ft | 445 kts | 11° |
| 2026-05-05 16:34 | 29.87864 | -98.41840 | 23375 ft | 445 kts | 3° |
| 2026-05-05 16:34 | 29.90920 | -98.41371 | 24497 ft | 447 kts | 0° |
| 2026-05-05 16:34 | 29.93992 | -98.40967 | 25512 ft | 452 kts | 359° |
| 2026-05-05 16:34 | 29.97154 | -98.40559 | 26551 ft | 455 kts | 359° |
| 2026-05-05 16:35 | 30.00283 | -98.40157 | 27560 ft | 458 kts | 358° |
| 2026-05-05 16:35 | 30.03447 | -98.39750 | 28506 ft | 460 kts | 358° |
| 2026-05-05 16:35 | 30.06630 | -98.39267 | 29393 ft | 470 kts | 3° |
| 2026-05-05 16:35 | 30.09794 | -98.38399 | 30183 ft | 473 kts | 4° |
| 2026-05-05 16:36 | 30.13009 | -98.37508 | 30975 ft | 473 kts | 5° |
| 2026-05-05 16:36 | 30.16204 | -98.36551 | 30995 ft | 474 kts | 6° |
| 2026-05-05 16:36 | 30.22524 | -98.34628 | 31006 ft | 473 kts | 6° |
| 2026-05-05 16:37 | 30.28938 | -98.32673 | 31012 ft | 473 kts | 6° |
| 2026-05-05 16:37 | 30.35292 | -98.30733 | 31014 ft | 473 kts | 6° |
| 2026-05-05 16:38 | 30.41663 | -98.28785 | 31016 ft | 473 kts | 6° |
| 2026-05-05 16:38 | 30.48042 | -98.26833 | 31011 ft | 473 kts | 6° |
| 2026-05-05 16:39 | 30.54365 | -98.24894 | 31004 ft | 473 kts | 6° |
| 2026-05-05 16:39 | 30.60758 | -98.22932 | 30997 ft | 473 kts | 6° |
| 2026-05-05 16:40 | 30.67138 | -98.20971 | 30996 ft | 474 kts | 6° |
| 2026-05-05 16:40 | 30.73506 | -98.19011 | 30995 ft | 473 kts | 6° |
| 2026-05-05 16:41 | 30.79849 | -98.17055 | 30995 ft | 473 kts | 6° |
| 2026-05-05 16:41 | 30.86253 | -98.15080 | 30995 ft | 474 kts | 6° |
| 2026-05-05 16:42 | 30.92566 | -98.13127 | 30989 ft | 471 kts | 5° |
| 2026-05-05 16:42 | 30.98911 | -98.11163 | 30980 ft | 467 kts | 5° |
| 2026-05-05 16:43 | 31.05165 | -98.09225 | 30972 ft | 464 kts | 5° |
| 2026-05-05 16:43 | 31.11439 | -98.07279 | 30974 ft | 464 kts | 5° |
| 2026-05-05 16:44 | 31.17563 | -98.05376 | 30974 ft | 464 kts | 5° |
| 2026-05-05 16:44 | 31.23789 | -98.02983 | 30983 ft | 473 kts | 12° |
| 2026-05-05 16:45 | 31.29421 | -98.00302 | 30972 ft | 476 kts | 13° |
| 2026-05-05 16:45 | 31.35860 | -97.97044 | 30969 ft | 476 kts | 14° |
| 2026-05-05 16:46 | 31.41939 | -97.93958 | 30964 ft | 476 kts | 14° |
| 2026-05-05 16:46 | 31.47982 | -97.90884 | 30959 ft | 476 kts | 14° |
| 2026-05-05 16:47 | 31.54063 | -97.87788 | 30957 ft | 476 kts | 14° |
| 2026-05-05 16:47 | 31.60130 | -97.84695 | 30958 ft | 476 kts | 14° |
| 2026-05-05 16:48 | 31.66206 | -97.81592 | 30960 ft | 476 kts | 14° |
| 2026-05-05 16:48 | 31.72247 | -97.78503 | 30960 ft | 476 kts | 14° |
| 2026-05-05 16:49 | 31.78253 | -97.75427 | 30959 ft | 476 kts | 14° |
| 2026-05-05 16:49 | 31.84346 | -97.72303 | 30957 ft | 476 kts | 14° |
| 2026-05-05 16:50 | 31.90392 | -97.69199 | 30935 ft | 476 kts | 14° |
| 2026-05-05 16:50 | 31.96452 | -97.66081 | 30903 ft | 476 kts | 14° |
| 2026-05-05 16:51 | 32.02483 | -97.62975 | 30884 ft | 476 kts | 14° |
| 2026-05-05 16:51 | 32.08614 | -97.59813 | 30884 ft | 476 kts | 14° |
| 2026-05-05 16:52 | 32.14670 | -97.56685 | 30885 ft | 476 kts | 14° |
| 2026-05-05 16:52 | 32.20702 | -97.53565 | 30882 ft | 476 kts | 14° |
| 2026-05-05 16:53 | 32.26750 | -97.50431 | 30883 ft | 476 kts | 14° |
| 2026-05-05 16:53 | 32.32866 | -97.47259 | 30883 ft | 476 kts | 14° |
| 2026-05-05 16:54 | 32.38846 | -97.44151 | 30882 ft | 476 kts | 14° |
| 2026-05-05 16:54 | 32.44944 | -97.40978 | 30884 ft | 476 kts | 14° |
| 2026-05-05 16:55 | 32.51014 | -97.37815 | 30890 ft | 476 kts | 14° |
| 2026-05-05 16:55 | 32.57070 | -97.34654 | 30890 ft | 477 kts | 14° |
| 2026-05-05 16:56 | 32.63080 | -97.31514 | 30880 ft | 477 kts | 14° |
| 2026-05-05 16:56 | 32.69217 | -97.28302 | 30878 ft | 477 kts | 14° |
| 2026-05-05 16:57 | 32.75261 | -97.25133 | 30874 ft | 477 kts | 14° |
| 2026-05-05 16:57 | 32.81299 | -97.21963 | 30868 ft | 477 kts | 14° |
| 2026-05-05 16:58 | 32.87414 | -97.18808 | 30852 ft | 470 kts | 10° |
| 2026-05-05 16:58 | 32.90530 | -97.17869 | 30862 ft | 457 kts | 0° |
| 2026-05-05 16:58 | 32.93636 | -97.17371 | 30755 ft | 452 kts | 357° |
| 2026-05-05 16:59 | 32.99761 | -97.16595 | 30757 ft | 453 kts | 357° |
| 2026-05-05 16:59 | 33.06047 | -97.15810 | 30758 ft | 454 kts | 358° |
| 2026-05-05 17:00 | 33.12306 | -97.15028 | 30765 ft | 457 kts | 359° |
| 2026-05-05 17:00 | 33.18602 | -97.14236 | 30764 ft | 457 kts | 359° |
| 2026-05-05 17:01 | 33.24871 | -97.13449 | 30763 ft | 457 kts | 359° |
| 2026-05-05 17:01 | 33.31197 | -97.12653 | 30762 ft | 457 kts | 359° |
| 2026-05-05 17:02 | 33.37502 | -97.11860 | 30769 ft | 457 kts | 359° |
| 2026-05-05 17:02 | 33.43801 | -97.11066 | 30778 ft | 457 kts | 359° |
| 2026-05-05 17:03 | 33.50079 | -97.10273 | 30779 ft | 457 kts | 359° |
| 2026-05-05 17:03 | 33.56395 | -97.09475 | 30779 ft | 457 kts | 359° |
| 2026-05-05 17:04 | 33.62690 | -97.08678 | 30778 ft | 458 kts | 359° |
| 2026-05-05 17:04 | 33.69027 | -97.07874 | 30778 ft | 458 kts | 359° |
| 2026-05-05 17:05 | 33.75343 | -97.07072 | 30778 ft | 461 kts | 360° |
| 2026-05-05 17:05 | 33.81738 | -97.06258 | 30771 ft | 461 kts | 360° |
| 2026-05-05 17:06 | 33.88092 | -97.05450 | 30764 ft | 461 kts | 360° |
| 2026-05-05 17:06 | 33.94451 | -97.04639 | 30729 ft | 462 kts | 360° |
| 2026-05-05 17:07 | 33.97612 | -97.04234 | 30380 ft | 460 kts | 360° |
| 2026-05-05 17:07 | 34.00787 | -97.03828 | 29909 ft | 457 kts | 360° |
| 2026-05-05 17:07 | 34.03918 | -97.03428 | 29416 ft | 453 kts | 360° |
| 2026-05-05 17:07 | 34.07042 | -97.03028 | 28919 ft | 450 kts | 0° |
| 2026-05-05 17:08 | 34.10051 | -97.02643 | 28437 ft | 446 kts | 0° |
| 2026-05-05 17:08 | 34.13201 | -97.02239 | 27938 ft | 443 kts | 0° |
| 2026-05-05 17:08 | 34.16276 | -97.01844 | 27445 ft | 440 kts | 0° |
| 2026-05-05 17:08 | 34.19309 | -97.01455 | 26959 ft | 437 kts | 0° |
| 2026-05-05 17:09 | 34.22290 | -97.01072 | 26481 ft | 434 kts | 0° |
| 2026-05-05 17:09 | 34.25273 | -97.00689 | 26002 ft | 430 kts | 0° |
| 2026-05-05 17:09 | 34.28242 | -97.00307 | 25526 ft | 427 kts | 0° |
| 2026-05-05 17:09 | 34.31155 | -96.99931 | 25060 ft | 417 kts | 0° |
| 2026-05-05 17:10 | 34.33916 | -96.99570 | 24578 ft | 391 kts | 0° |
| 2026-05-05 17:10 | 34.36615 | -96.99339 | 24095 ft | 383 kts | 352° |
| 2026-05-05 17:10 | 34.39177 | -96.99923 | 23691 ft | 372 kts | 337° |
| 2026-05-05 17:10 | 34.41544 | -97.01118 | 23329 ft | 368 kts | 330° |
| 2026-05-05 17:11 | 34.43849 | -97.02509 | 22921 ft | 366 kts | 329° |
| 2026-05-05 17:11 | 34.46095 | -97.03921 | 22518 ft | 363 kts | 328° |
| 2026-05-05 17:11 | 34.48326 | -97.05340 | 22116 ft | 362 kts | 328° |
| 2026-05-05 17:11 | 34.50548 | -97.06757 | 21717 ft | 360 kts | 328° |
| 2026-05-05 17:12 | 34.52742 | -97.08158 | 21322 ft | 358 kts | 328° |
| 2026-05-05 17:12 | 34.54964 | -97.09579 | 20922 ft | 357 kts | 328° |
| 2026-05-05 17:12 | 34.57144 | -97.10973 | 20529 ft | 355 kts | 328° |
| 2026-05-05 17:12 | 34.59331 | -97.12373 | 20135 ft | 354 kts | 328° |
| 2026-05-05 17:13 | 34.61503 | -97.13764 | 19744 ft | 353 kts | 328° |
| 2026-05-05 17:13 | 34.63663 | -97.15148 | 19355 ft | 352 kts | 327° |
| 2026-05-05 17:13 | 34.65841 | -97.16545 | 18963 ft | 351 kts | 327° |
| 2026-05-05 17:13 | 34.67990 | -97.17924 | 18576 ft | 350 kts | 327° |
| 2026-05-05 17:14 | 34.70126 | -97.19295 | 18191 ft | 349 kts | 327° |
| 2026-05-05 17:14 | 34.72279 | -97.20678 | 17803 ft | 348 kts | 327° |
| 2026-05-05 17:14 | 34.74411 | -97.22049 | 17419 ft | 346 kts | 327° |
| 2026-05-05 17:14 | 34.76555 | -97.23428 | 17032 ft | 345 kts | 327° |
| 2026-05-05 17:15 | 34.78635 | -97.24828 | 16719 ft | 342 kts | 324° |
| 2026-05-05 17:15 | 34.80653 | -97.26322 | 16386 ft | 341 kts | 324° |
| 2026-05-05 17:15 | 34.82687 | -97.27840 | 16014 ft | 339 kts | 324° |
| 2026-05-05 17:15 | 34.84606 | -97.29267 | 15628 ft | 303 kts | 324° |
| 2026-05-05 17:16 | 34.86348 | -97.30572 | 15279 ft | 296 kts | 323° |
| 2026-05-05 17:16 | 34.88094 | -97.31884 | 15000 ft | 297 kts | 323° |
| 2026-05-05 17:16 | 34.89849 | -97.33206 | 14614 ft | 301 kts | 323° |
| 2026-05-05 17:16 | 34.91621 | -97.34551 | 13701 ft | 297 kts | 323° |
| 2026-05-05 17:17 | 34.93339 | -97.35858 | 12842 ft | 293 kts | 324° |
| 2026-05-05 17:17 | 34.95069 | -97.37174 | 12018 ft | 289 kts | 324° |
| 2026-05-05 17:17 | 34.96650 | -97.38379 | 11570 ft | 287 kts | 324° |
| 2026-05-05 17:17 | 34.98367 | -97.39687 | 11206 ft | 286 kts | 324° |
| 2026-05-05 17:18 | 35.00040 | -97.40962 | 10967 ft | 284 kts | 324° |
| 2026-05-05 17:18 | 35.01720 | -97.42242 | 10969 ft | 284 kts | 324° |
| 2026-05-05 17:18 | 35.03403 | -97.43527 | 10964 ft | 284 kts | 324° |
| 2026-05-05 17:18 | 35.05089 | -97.44813 | 10961 ft | 284 kts | 324° |
| 2026-05-05 17:19 | 35.06759 | -97.46088 | 10961 ft | 284 kts | 324° |
| 2026-05-05 17:19 | 35.08346 | -97.47406 | 10962 ft | 283 kts | 321° |
| 2026-05-05 17:19 | 35.09943 | -97.48799 | 10962 ft | 283 kts | 320° |
| 2026-05-05 17:19 | 35.11469 | -97.50220 | 10959 ft | 282 kts | 319° |
| 2026-05-05 17:20 | 35.13021 | -97.51683 | 10954 ft | 276 kts | 319° |
| 2026-05-05 17:20 | 35.14477 | -97.53055 | 10124 ft | 267 kts | 319° |
| 2026-05-05 17:20 | 35.15962 | -97.54469 | 8653 ft | 274 kts | 320° |
| 2026-05-05 17:20 | 35.17512 | -97.55646 | 7986 ft | 257 kts | 329° |
| 2026-05-05 17:21 | 35.19043 | -97.56657 | 7552 ft | 232 kts | 329° |
| 2026-05-05 17:21 | 35.20379 | -97.57527 | 7281 ft | 210 kts | 329° |
| 2026-05-05 17:21 | 35.21664 | -97.58358 | 6445 ft | 216 kts | 334° |
| 2026-05-05 17:22 | 35.24596 | -97.58894 | 5143 ft | 211 kts | 356° |
| 2026-05-05 17:22 | 35.26029 | -97.58875 | 4482 ft | 209 kts | 358° |
| 2026-05-05 17:22 | 35.27464 | -97.58867 | 3848 ft | 205 kts | 358° |
| 2026-05-05 17:22 | 35.28807 | -97.58869 | 3667 ft | 175 kts | 358° |
| 2026-05-05 17:23 | 35.29980 | -97.58871 | 3281 ft | 167 kts | 358° |
| 2026-05-05 17:23 | 35.31089 | -97.58871 | 2905 ft | 146 kts | 358° |
| 2026-05-05 17:23 | 35.31998 | -97.58845 | 2690 ft | 119 kts | 360° |
| 2026-05-05 17:23 | 35.32822 | -97.58822 | 2098 ft | 114 kts | 358° |
| 2026-05-05 17:24 | 35.33562 | -97.58857 | 1796 ft | 98 kts | 357° |
| 2026-05-05 17:24 | 35.34227 | -97.58899 | 1664 ft | 95 kts | 356° |
| 2026-05-05 17:24 | 35.34909 | -97.58917 | 1611 ft | 94 kts | 0° |
| 2026-05-05 17:24 | 35.35599 | -97.58891 | 1559 ft | 95 kts | 2° |
| 2026-05-05 17:25 | 35.36275 | -97.58887 | 1484 ft | 95 kts | 0° |
| 2026-05-05 17:25 | 35.36724 | -97.58881 | 1447 ft | 97 kts | 0° |
| 2026-05-05 17:25 | 35.37633 | -97.58891 | 1342 ft | 93 kts | 1° |
| 2026-05-05 17:25 | 35.38277 | -97.58891 | 1291 ft | 80 kts | 1° |
| 2026-05-05 17:26 | 35.38634 | -97.58891 | 1294 ft | 26 kts | 360° |
| 2026-05-05 17:26 | 35.38804 | -97.58894 | 1295 ft | 20 kts | 359° |
| 2026-05-05 17:26 | 35.38931 | -97.58893 | 1295 ft | 16 kts | 0° |
| 2026-05-05 17:26 | 35.39051 | -97.58891 | 1295 ft | 17 kts | 1° |
| 2026-05-05 17:27 | 35.39179 | -97.58884 | 1295 ft | 19 kts | 21° |
| 2026-05-05 17:27 | 35.39258 | -97.58753 | 1293 ft | 22 kts | 25° |
| 2026-05-05 17:27 | 35.39426 | -97.58743 | 1290 ft | 22 kts | 0° |
| 2026-05-05 17:27 | 35.39552 | -97.58742 | 1288 ft | 15 kts | 0° |
| 2026-05-05 17:28 | 35.39650 | -97.58742 | 1287 ft | 13 kts | 0° |
| 2026-05-05 17:28 | 35.39717 | -97.58707 | 1285 ft | 11 kts | 72° |
| 2026-05-05 17:28 | 35.39715 | -97.58622 | 1285 ft | 8 kts | 121° |
| 2026-05-05 17:28 | 35.39669 | -97.58617 | 1285 ft | 6 kts | 201° |
| 2026-05-05 17:29 | 35.39656 | -97.58608 | 1285 ft | 1 kts | 97° |
| 2026-05-05 17:29 | 35.39656 | -97.58607 | 1285 ft | 0 kts | 95° |